Minocqua, Wisconsin
Current Conditions -  °F | °C
As of 4:15 AM on Sunday 26 Oct 2014 (Local Time) from KARV Reporting Station
Clear Clear  
Wind Chill: 36°   Ceiling: Unl
Heat Index: 39°   Visibility: 10mi
Dew Point: 29°   Wind: 5mph
Humidity: 67%   Direction: 300°WNW
Pressure: 29.95"   Gusts: NA
Location:  45.93°N, 89.73°W
Report Text: KARV 260915Z AUTO 30004KT 10SM CLR 04/M02 A2995 RMK AO2 T00401016
Loading
Personal Weather Stations






























Interactive Weather Map New forecast layout! Learn more

10-Day Weather Forecast

Advertisements
Track Severe Weather on mobile